Time;durP1;ratioP1;P1;durP2;ratioP2;P2;SDS_P1;SDS_P2;PMS_P1;PMS_P2;Temp;Humidity;BMP_temperature;BMP_pressure;BME280_temperature;BME280_humidity;BME280_pressure;Samples;Min_cycle;Max_cycle;Signal;HPM_P1;HPM_P2
2021/10/03 07:17:13;;;;;;;9.05;3.13;;;;;;;;;;5383773;23;20063;-81
2021/10/03 07:19:39;;;;;;;5.10;3.55;;;;;;;;;;4961224;28;20503;-82
2021/10/03 07:22:07;;;;;;;7.03;3.33;;;;;;;;;;4970913;28;20106;-81
2021/10/03 07:24:35;;;;;;;6.25;3.47;;;;;;;;;;4963167;28;20027;-82
2021/10/03 07:27:01;;;;;;;6.03;2.92;;;;;;;;;;4959801;29;20097;-82
2021/10/03 08:16:03;;;;;;;4.63;3.05;;;;;;;;;;5938429;23;20015;-85
2021/10/03 08:18:30;;;;;;;6.18;3.53;;;;;;;;;;4950219;28;20082;-81
2021/10/03 08:21:31;;;;;;;4.20;3.40;;;;;;;;;;4969474;28;20034;-79
2021/10/03 08:24:31;;;;;;;9.00;3.40;;;;;;;;;;4977215;28;20075;-85
2021/10/03 08:27:02;;;;;;;7.80;3.20;;;;;;;;;;5278202;23;20051;-83
2021/10/03 08:29:29;;;;;;;5.45;3.20;;;;;;;;;;4961291;28;20023;-80
2021/10/03 08:31:58;;;;;;;6.80;3.17;;;;;;;;;;4958971;28;20039;-81
2021/10/03 08:34:29;;;;;;;5.95;3.47;;;;;;;;;;4959718;29;20031;-80
2021/10/03 08:36:59;;;;;;;8.93;3.60;;;;;;;;;;4959623;28;20065;-80
2021/10/03 08:39:28;;;;;;;6.28;3.42;;;;;;;;;;4956506;29;20036;-81
2021/10/03 08:41:55;;;;;;;4.88;3.45;;;;;;;;;;4951467;29;20028;-81
2021/10/03 08:44:31;;;;;;;5.72;3.38;;;;;;;;;;4954370;29;20065;-82
2021/10/03 08:46:57;;;;;;;5.55;3.47;;;;;;;;;;4958563;28;20031;-81
2021/10/03 08:49:29;;;;;;;6.80;3.45;;;;;;;;;;4959296;29;20042;-81
2021/10/03 08:51:56;;;;;;;6.50;3.60;;;;;;;;;;4955113;29;20031;-81
2021/10/03 08:54:22;;;;;;;12.23;6.65;;;;;;;;;;4962906;29;20059;-82
2021/10/03 08:56:55;;;;;;;5.43;3.47;;;;;;;;;;4962852;29;20451;-81
2021/10/03 08:59:22;;;;;;;5.78;4.18;;;;;;;;;;4960749;28;20024;-80
2021/10/03 09:01:54;;;;;;;5.50;3.85;;;;;;;;;;4965530;29;20100;-81
2021/10/03 09:04:41;;;;;;;5.93;4.10;;;;;;;;;;4958407;28;20380;-81
2021/10/03 09:07:16;;;;;;;7.80;3.78;;;;;;;;;;4985479;28;20031;-80
2021/10/03 09:09:58;;;;;;;5.07;3.67;;;;;;;;;;4959021;29;20062;-83
2021/10/03 09:12:37;;;;;;;4.72;3.78;;;;;;;;;;4968995;29;20039;-82
2021/10/03 09:15:14;;;;;;;8.02;4.45;;;;;;;;;;4963684;29;20037;-80
2021/10/03 09:17:40;;;;;;;6.97;3.60;;;;;;;;;;4965959;29;20030;-80
2021/10/03 09:20:27;;;;;;;6.80;4.50;;;;;;;;;;4955779;29;20027;-82
2021/10/03 09:22:56;;;;;;;6.30;3.67;;;;;;;;;;4882881;29;20429;-79
2021/10/03 09:25:59;;;;;;;6.00;4.25;;;;;;;;;;4905528;29;20052;-87
2021/10/03 10:32:15;;;;;;;8.18;5.35;;;;;;;;;;4571131;23;20078;-87
2021/10/03 10:35:34;;;;;;;11.83;4.80;;;;;;;;;;4968952;28;20031;-86
2021/10/03 11:23:32;;;;;;;9.85;5.75;;;;;;;;;;4921248;29;20047;-83
2021/10/03 11:30:29;;;;;;;10.30;6.20;;;;;;;;;;4917867;29;20276;-83
2021/10/03 11:33:39;;;;;;;8.77;6.22;;;;;;;;;;5207109;23;20026;-82
2021/10/03 11:47:11;;;;;;;10.48;7.20;;;;;;;;;;4939479;29;20048;-84
2021/10/03 11:50:06;;;;;;;7.50;5.65;;;;;;;;;;4957103;28;20075;-84
2021/10/03 11:53:08;;;;;;;8.43;6.72;;;;;;;;;;4957946;29;20030;-84
2021/10/03 11:59:46;;;;;;;10.00;6.82;;;;;;;;;;4936665;28;20034;-83
2021/10/03 12:03:01;;;;;;;8.63;6.72;;;;;;;;;;4958272;29;20015;-84
2021/10/03 12:05:54;;;;;;;8.48;6.45;;;;;;;;;;4950293;29;20047;-84
2021/10/03 12:08:41;;;;;;;8.00;6.65;;;;;;;;;;4928536;29;20032;-83
2021/10/03 12:11:19;;;;;;;9.07;6.18;;;;;;;;;;4911708;29;20043;-83
2021/10/03 12:14:01;;;;;;;10.02;6.38;;;;;;;;;;4928621;29;20083;-84
2021/10/03 12:16:27;;;;;;;8.38;6.72;;;;;;;;;;4937881;29;20042;-83
2021/10/03 12:19:35;;;;;;;8.70;7.38;;;;;;;;;;4962749;28;20027;-86
2021/10/03 12:22:50;;;;;;;10.65;6.43;;;;;;;;;;4950535;29;20121;-87
2021/10/03 12:26:00;;;;;;;9.20;7.22;;;;;;;;;;4936866;29;20027;-87
2021/10/03 12:34:23;;;;;;;10.60;6.68;;;;;;;;;;5820865;23;20059;-84
2021/10/03 12:36:49;;;;;;;8.52;6.70;;;;;;;;;;4976708;29;20095;-83
2021/10/03 12:39:37;;;;;;;8.50;6.65;;;;;;;;;;4977805;28;20023;-84
2021/10/03 12:42:21;;;;;;;9.50;7.25;;;;;;;;;;4980449;28;20165;-82
2021/10/03 12:44:54;;;;;;;9.80;6.85;;;;;;;;;;4970062;29;20027;-83
2021/10/03 12:47:21;;;;;;;10.15;7.25;;;;;;;;;;4969092;29;20019;-83
2021/10/03 12:49:47;;;;;;;10.45;6.90;;;;;;;;;;4965717;29;20035;-83
2021/10/03 12:52:16;;;;;;;10.48;6.90;;;;;;;;;;4974647;28;20003;-83
2021/10/03 13:05:19;;;;;;;9.00;6.70;;;;;;;;;;4969818;29;20050;-84
2021/10/03 13:11:26;;;;;;;8.80;7.32;;;;;;;;;;4968717;29;20054;-83
2021/10/03 13:14:13;;;;;;;10.35;7.47;;;;;;;;;;4943956;29;20024;-84
2021/10/03 13:16:51;;;;;;;9.77;7.50;;;;;;;;;;4954624;28;20052;-84
2021/10/03 13:19:54;;;;;;;11.20;7.35;;;;;;;;;;4942057;29;20036;-84
2021/10/03 13:23:13;;;;;;;12.18;8.18;;;;;;;;;;4949443;28;20127;-84
2021/10/03 13:33:45;;;;;;;10.60;7.85;;;;;;;;;;4885955;29;20043;-85
2021/10/03 13:37:14;;;;;;;12.10;7.88;;;;;;;;;;4867278;29;20061;-84
2021/10/03 13:43:22;;;;;;;10.35;8.45;;;;;;;;;;4106803;26;20064;-85
2021/10/03 13:47:05;;;;;;;15.55;8.55;;;;;;;;;;4865436;29;20088;-84
2021/10/03 13:50:17;;;;;;;10.38;7.75;;;;;;;;;;4880771;29;20104;-83
2021/10/03 13:53:53;;;;;;;11.30;7.72;;;;;;;;;;4898381;29;20037;-84
2021/10/03 13:56:43;;;;;;;14.13;8.02;;;;;;;;;;4903110;29;20040;-83
2021/10/03 14:02:32;;;;;;;10.23;7.70;;;;;;;;;;4902066;29;20036;-83
2021/10/03 14:05:23;;;;;;;9.75;7.72;;;;;;;;;;4874099;29;20518;-82
2021/10/03 14:07:54;;;;;;;9.43;7.60;;;;;;;;;;4895116;29;20092;-83
2021/10/03 14:10:57;;;;;;;9.63;7.05;;;;;;;;;;4890965;29;20040;-82
2021/10/03 14:13:46;;;;;;;11.38;7.28;;;;;;;;;;4897085;29;20029;-83
2021/10/03 14:16:23;;;;;;;10.40;7.70;;;;;;;;;;4905556;29;20020;-82
2021/10/03 14:18:53;;;;;;;13.18;8.18;;;;;;;;;;4935653;29;20020;-82
2021/10/03 14:21:21;;;;;;;12.98;7.88;;;;;;;;;;4942982;29;20027;-82
2021/10/03 14:23:52;;;;;;;11.02;7.65;;;;;;;;;;4956317;29;20039;-84
2021/10/03 14:26:31;;;;;;;11.43;7.70;;;;;;;;;;4954859;29;20016;-83
2021/10/03 14:29:13;;;;;;;10.60;7.60;;;;;;;;;;4956147;28;20052;-83
2021/10/03 14:31:44;;;;;;;10.10;7.30;;;;;;;;;;5354925;23;20044;-82
2021/10/03 14:34:13;;;;;;;11.52;7.75;;;;;;;;;;4961162;29;20099;-83
2021/10/03 14:36:40;;;;;;;11.50;7.83;;;;;;;;;;4957342;29;20035;-84
2021/10/03 14:39:06;;;;;;;14.02;7.90;;;;;;;;;;4967524;28;20325;-84
2021/10/03 14:41:38;;;;;;;16.05;8.65;;;;;;;;;;4936833;29;20052;-84
2021/10/03 14:49:27;;;;;;;13.65;8.40;;;;;;;;;;5260776;23;20055;-81
2021/10/03 14:51:53;;;;;;;11.38;7.95;;;;;;;;;;4941420;29;20055;-80
2021/10/03 14:54:21;;;;;;;15.57;8.85;;;;;;;;;;4961642;28;20023;-83
2021/10/03 14:56:47;;;;;;;9.13;7.50;;;;;;;;;;4964839;29;20091;-84
2021/10/03 14:59:15;;;;;;;11.27;7.60;;;;;;;;;;4962032;28;20011;-83
2021/10/03 15:01:41;;;;;;;9.65;5.03;;;;;;;;;;4980975;28;20028;-83
2021/10/03 15:04:07;;;;;;;9.40;4.10;;;;;;;;;;4955375;29;20032;-83
2021/10/03 15:06:33;;;;;;;6.18;3.25;;;;;;;;;;4963818;28;20036;-82
2021/10/03 15:09:03;;;;;;;8.63;3.88;;;;;;;;;;4975914;29;20039;-82
2021/10/03 15:11:35;;;;;;;8.55;4.18;;;;;;;;;;4976879;29;20027;-83
2021/10/03 15:14:23;;;;;;;7.65;2.75;;;;;;;;;;4929406;29;20062;-84
2021/10/03 15:17:26;;;;;;;3.47;2.20;;;;;;;;;;4957229;29;20086;-84
2021/10/03 15:26:39;;;;;;;5.82;1.85;;;;;;;;;;5442619;23;20177;-82
2021/10/03 15:29:05;;;;;;;3.58;1.70;;;;;;;;;;4946356;28;20073;-82
2021/10/03 15:55:56;;;;;;;1.63;0.68;;;;;;;;;;4972107;29;20016;-85
2021/10/03 15:59:07;;;;;;;3.08;1.40;;;;;;;;;;4975486;28;20053;-86
2021/10/03 16:02:03;;;;;;;5.57;1.00;;;;;;;;;;4982187;28;20039;-84
2021/10/03 16:07:13;;;;;;;1.48;0.90;;;;;;;;;;5199700;23;20055;-84
2021/10/03 16:32:56;;;;;;;1.83;0.90;;;;;;;;;;5045918;23;20034;-83
2021/10/03 19:03:12;;;;;;;3.38;1.30;;;;;;;;;;5475336;23;20043;-83
2021/10/03 19:05:45;;;;;;;3.63;0.90;;;;;;;;;;4935082;29;20040;-83
2021/10/03 19:08:30;;;;;;;1.45;0.70;;;;;;;;;;4939184;29;20040;-83
2021/10/03 19:10:55;;;;;;;1.40;0.55;;;;;;;;;;4938738;29;20048;-83
2021/10/03 19:13:49;;;;;;;1.58;0.80;;;;;;;;;;4938265;29;20024;-83
2021/10/03 19:16:17;;;;;;;2.45;0.98;;;;;;;;;;4935209;29;20036;-83
2021/10/03 19:19:15;;;;;;;2.20;0.88;;;;;;;;;;4941316;29;20020;-84
2021/10/03 19:25:44;;;;;;;4.10;0.98;;;;;;;;;;4941596;29;20115;-84
2021/10/03 19:29:09;;;;;;;2.30;0.98;;;;;;;;;;4941374;29;20075;-84
2021/10/03 19:32:26;;;;;;;0.90;0.80;;;;;;;;;;4902714;29;20047;-85
2021/10/03 19:37:57;;;;;;;1.70;1.13;;;;;;;;;;3221719;26;20054;-84
